createdAt,value
2019-04-28T00:00:55.700Z,101004.97
2019-04-28T00:02:04.125Z,101006.33
2019-04-28T00:03:10.897Z,101010.63
2019-04-28T00:04:18.393Z,101005.55
2019-04-28T00:05:25.508Z,101008.94
2019-04-28T00:06:32.323Z,101009.33
2019-04-28T00:07:41.007Z,101012.75
2019-04-28T00:08:47.836Z,101012.30
2019-04-28T00:09:54.943Z,101014.91
2019-04-28T00:11:01.996Z,101010.64
2019-04-28T00:12:11.281Z,101009.38
2019-04-28T00:13:17.847Z,101007.33
2019-04-28T00:14:24.589Z,101009.44
2019-04-28T00:15:31.545Z,101012.06
2019-04-28T00:16:38.710Z,101003.53
2019-04-28T00:17:45.469Z,101006.89
2019-04-28T00:18:52.598Z,101009.06
2019-04-28T00:20:01.437Z,101006.48
2019-04-28T00:21:15.413Z,101007.31
2019-04-28T00:22:32.450Z,101009.03
2019-04-28T00:23:56.215Z,101006.03
2019-04-28T00:25:11.513Z,101007.35
2019-04-28T00:26:37.774Z,101006.50
2019-04-28T00:27:44.955Z,101005.23
2019-04-28T00:28:51.717Z,101008.62
2019-04-28T00:29:58.481Z,101011.17
2019-04-28T00:31:05.806Z,101007.81
2019-04-28T00:32:13.107Z,101010.35
2019-04-28T00:33:19.848Z,101012.91
2019-04-28T00:34:26.589Z,101018.44
2019-04-28T00:35:35.236Z,101011.61
2019-04-28T00:36:43.578Z,101013.73
2019-04-28T00:37:51.695Z,101011.59
2019-04-28T00:38:59.247Z,101012.45
2019-04-28T00:40:10.958Z,101014.56
2019-04-28T00:41:17.456Z,101012.84
2019-04-28T00:42:24.203Z,101012.00
2019-04-28T00:43:31.808Z,101014.13
2019-04-28T00:44:39.047Z,101015.00
2019-04-28T00:45:45.789Z,101008.62
2019-04-28T00:46:52.889Z,101012.45
2019-04-28T00:48:00.987Z,101012.86
2019-04-28T00:49:08.050Z,101017.10
2019-04-28T00:50:15.286Z,101017.92
2019-04-28T00:51:22.363Z,101019.22
2019-04-28T00:52:29.618Z,101020.93
2019-04-28T00:53:36.723Z,101017.92
2019-04-28T00:54:43.479Z,101020.94
2019-04-28T00:55:51.622Z,101016.66
2019-04-28T00:56:58.662Z,101021.34
2019-04-28T00:58:05.413Z,101020.86
2019-04-28T00:59:12.617Z,101018.66
2019-04-28T01:00:23.052Z,101013.91
2019-04-28T01:01:42.705Z,101017.25
2019-04-28T01:02:50.972Z,101020.64
2019-04-28T01:03:59.180Z,101021.91
2019-04-28T01:05:07.652Z,101021.45
2019-04-28T01:06:14.395Z,101021.89
2019-04-28T01:07:21.369Z,101022.27
2019-04-28T01:08:28.182Z,101017.17
2019-04-28T01:09:35.247Z,101017.14
2019-04-28T01:10:42.333Z,101014.13
2019-04-28T01:11:49.074Z,101015.03
2019-04-28T01:12:56.173Z,101016.73
2019-04-28T01:14:02.908Z,101018.89
2019-04-28T01:15:17.471Z,101019.36
2019-04-28T01:16:34.447Z,101022.72
2019-04-28T01:18:03.910Z,101022.64
2019-04-28T01:19:20.211Z,101028.19
2019-04-28T01:20:29.602Z,101027.02
2019-04-28T01:22:10.381Z,101030.00
2019-04-28T01:23:17.454Z,101024.94
2019-04-28T01:24:24.201Z,101026.23
2019-04-28T01:25:31.705Z,101026.23
2019-04-28T01:26:39.163Z,101024.55
2019-04-28T01:27:54.681Z,101023.67
2019-04-28T01:29:01.817Z,101022.38
2019-04-28T01:30:14.814Z,101020.28
2019-04-28T01:31:44.770Z,101019.53
2019-04-28T01:32:57.621Z,101018.30
2019-04-28T01:34:23.221Z,101020.83
2019-04-28T01:35:30.315Z,101024.75
2019-04-28T01:36:39.856Z,101020.94
2019-04-28T01:37:46.731Z,101025.18
2019-04-28T01:38:53.829Z,101024.38
2019-04-28T01:40:00.626Z,101028.20
2019-04-28T01:41:09.694Z,101032.88
2019-04-28T01:42:16.514Z,101033.30
2019-04-28T01:43:23.563Z,101031.59
2019-04-28T01:44:30.646Z,101030.36
2019-04-28T01:45:37.599Z,101032.47
2019-04-28T01:46:44.376Z,101031.13
2019-04-28T01:47:51.138Z,101029.84
2019-04-28T01:48:59.783Z,101032.78
2019-04-28T01:50:07.018Z,101034.88
2019-04-28T01:51:14.248Z,101034.88
2019-04-28T01:52:20.980Z,101032.76
2019-04-28T01:53:27.730Z,101040.79
2019-04-28T01:54:34.469Z,101040.78
2019-04-28T01:55:41.546Z,101041.16
2019-04-28T01:56:50.167Z,101039.87
2019-04-28T01:57:57.131Z,101045.34
2019-04-28T01:59:03.883Z,101046.25
2019-04-28T02:00:22.305Z,101040.27
2019-04-28T02:01:21.471Z,101039.84
2019-04-28T02:02:30.051Z,101038.14
2019-04-28T02:03:37.268Z,101041.52
2019-04-28T02:04:44.096Z,101038.13
2019-04-28T02:05:51.181Z,101039.39
2019-04-28T02:06:59.803Z,101036.87
2019-04-28T02:08:07.075Z,101036.13
2019-04-28T02:09:13.852Z,101036.95
2019-04-28T02:10:21.857Z,101037.86
2019-04-28T02:11:29.584Z,101036.16
2019-04-28T02:12:36.459Z,101036.16
2019-04-28T02:13:43.594Z,101033.16
2019-04-28T02:14:52.169Z,101035.70
2019-04-28T02:16:00.033Z,101027.22
2019-04-28T02:17:07.226Z,101034.05
2019-04-28T02:18:14.361Z,101038.34
2019-04-28T02:19:21.437Z,101042.19
2019-04-28T02:20:30.011Z,101046.38
2019-04-28T02:21:59.390Z,101045.09
2019-04-28T02:23:14.772Z,101051.93
2019-04-28T02:24:31.982Z,101047.70
2019-04-28T02:25:39.879Z,101051.91
2019-04-28T02:26:46.878Z,101057.39
2019-04-28T02:27:56.964Z,101050.58
2019-04-28T02:29:02.918Z,101054.34
2019-04-28T02:30:11.513Z,101050.47
2019-04-28T02:31:24.057Z,101050.45
2019-04-28T02:32:30.589Z,101050.41
2019-04-28T02:33:36.285Z,101050.00
2019-04-28T02:34:43.201Z,101058.09
2019-04-28T02:35:51.071Z,101049.16
2019-04-28T02:37:01.012Z,101054.28
2019-04-28T02:38:06.472Z,101060.66
2019-04-28T02:39:13.206Z,101059.41
2019-04-28T02:40:20.882Z,101055.64
2019-04-28T02:41:30.645Z,101057.77
2019-04-28T02:42:36.648Z,101056.48
2019-04-28T02:43:43.381Z,101053.10
2019-04-28T02:44:50.931Z,101051.44
2019-04-28T02:46:00.696Z,101054.86
2019-04-28T02:47:10.752Z,101057.03
2019-04-28T02:48:21.830Z,101058.75
2019-04-28T02:49:47.098Z,101052.81
2019-04-28T02:51:05.309Z,101056.66
2019-04-28T02:52:22.603Z,101054.09
2019-04-28T02:53:33.621Z,101054.55
2019-04-28T02:54:40.689Z,101058.45
2019-04-28T02:55:47.548Z,101057.61
2019-04-28T02:56:54.574Z,101054.64
2019-04-28T02:58:01.647Z,101054.27
2019-04-28T02:59:10.985Z,101055.08
2019-04-28T03:00:21.301Z,101054.26
2019-04-28T03:01:27.349Z,101057.27
2019-04-28T03:02:34.458Z,101056.45
2019-04-28T03:03:41.196Z,101056.89
2019-04-28T03:04:50.603Z,101058.98
2019-04-28T03:05:57.132Z,101055.16
2019-04-28T03:07:04.216Z,101057.27
2019-04-28T03:08:11.223Z,101061.97
2019-04-28T03:09:20.254Z,101061.53
2019-04-28T03:10:26.693Z,101064.09
2019-04-28T03:11:33.928Z,101062.81
2019-04-28T03:12:41.619Z,101067.07
2019-04-28T03:13:50.856Z,101067.97
2019-04-28T03:14:57.003Z,101068.80
2019-04-28T03:16:03.723Z,101065.42
2019-04-28T03:17:11.098Z,101068.42
2019-04-28T03:18:18.089Z,101064.60
2019-04-28T03:19:25.190Z,101065.06
2019-04-28T03:20:32.211Z,101069.34
2019-04-28T03:21:41.595Z,101066.80
2019-04-28T03:22:50.809Z,101063.41
2019-04-28T03:23:56.777Z,101068.52
2019-04-28T03:25:05.532Z,101069.84
2019-04-28T03:26:37.134Z,101075.77
2019-04-28T03:27:55.702Z,101071.97
2019-04-28T03:29:10.864Z,101072.47
2019-04-28T03:30:35.930Z,101074.58
2019-04-28T03:32:16.104Z,101072.03
2019-04-28T03:33:11.564Z,101073.30
2019-04-28T03:34:14.313Z,101079.22
2019-04-28T03:35:22.845Z,101076.28
2019-04-28T03:36:32.999Z,101078.39
2019-04-28T03:37:41.161Z,101086.44
2019-04-28T03:38:47.079Z,101082.66
2019-04-28T03:39:53.840Z,101086.05
2019-04-28T03:41:01.216Z,101082.66
2019-04-28T03:42:11.462Z,101082.23
2019-04-28T03:43:17.209Z,101079.68
2019-04-28T03:44:24.323Z,101079.28
2019-04-28T03:45:36.461Z,101082.23
2019-04-28T03:46:51.152Z,101088.64
2019-04-28T03:48:00.212Z,101083.55
2019-04-28T03:49:06.576Z,101082.27
2019-04-28T03:50:13.518Z,101078.90
2019-04-28T03:51:21.298Z,101085.66
2019-04-28T03:52:28.489Z,101078.84
2019-04-28T03:53:35.600Z,101079.72
2019-04-28T03:54:42.314Z,101080.56
2019-04-28T03:55:51.353Z,101084.39
2019-04-28T03:56:57.474Z,101089.92
2019-04-28T03:58:04.265Z,101088.69
2019-04-28T03:59:11.299Z,101085.27
2019-04-28T04:00:18.685Z,101090.81
2019-04-28T04:01:25.860Z,101089.09
2019-04-28T04:02:32.620Z,101093.36
2019-04-28T04:03:41.750Z,101092.08
2019-04-28T04:04:48.139Z,101095.46
2019-04-28T04:05:54.900Z,101092.92
2019-04-28T04:07:01.987Z,101094.64
2019-04-28T04:08:10.951Z,101097.63
2019-04-28T04:09:17.237Z,101099.77
2019-04-28T04:10:34.126Z,101102.72
2019-04-28T04:11:45.036Z,101098.45
2019-04-28T04:13:01.887Z,101107.37
2019-04-28T04:14:24.324Z,101103.11
2019-04-28T04:15:50.533Z,101100.16
2019-04-28T04:17:05.415Z,101106.53
2019-04-28T04:18:16.529Z,101099.29
2019-04-28T04:19:23.367Z,101102.70
2019-04-28T04:20:31.182Z,101099.77
2019-04-28T04:21:40.562Z,101100.61
2019-04-28T04:22:46.916Z,101103.16
2019-04-28T04:23:54.066Z,101102.72
2019-04-28T04:25:01.445Z,101108.64
2019-04-28T04:26:11.492Z,101105.64
2019-04-28T04:27:17.015Z,101104.77
2019-04-28T04:28:23.786Z,101102.62
2019-04-28T04:29:31.037Z,101106.88
2019-04-28T04:30:40.567Z,101109.81
2019-04-28T04:31:46.659Z,101107.69
2019-04-28T04:32:53.426Z,101113.62
2019-04-28T04:34:02.841Z,101112.30
2019-04-28T04:35:10.401Z,101110.19
2019-04-28T04:36:17.693Z,101116.95
2019-04-28T04:37:24.500Z,101120.77
2019-04-28T04:38:31.581Z,101116.50
2019-04-28T04:39:40.751Z,101122.05
2019-04-28T04:40:47.386Z,101119.06
2019-04-28T04:41:54.516Z,101113.94
2019-04-28T04:43:02.025Z,101121.15
2019-04-28T04:44:11.189Z,101114.78
2019-04-28T04:45:20.274Z,101117.32
2019-04-28T04:46:27.251Z,101119.00
2019-04-28T04:47:34.095Z,101119.83
2019-04-28T04:48:41.401Z,101119.00
2019-04-28T04:49:50.321Z,101118.16
2019-04-28T04:50:56.578Z,101121.97
2019-04-28T04:52:03.360Z,101127.02
2019-04-28T04:53:10.996Z,101124.02
2019-04-28T04:54:20.530Z,101119.80
2019-04-28T04:55:27.364Z,101127.41
2019-04-28T04:56:34.118Z,101130.38
2019-04-28T04:57:41.307Z,101128.27
2019-04-28T04:58:50.289Z,101132.48
2019-04-28T04:59:56.968Z,101135.42
2019-04-28T05:01:30.313Z,101139.63
2019-04-28T05:03:03.235Z,101137.53
2019-04-28T05:04:34.990Z,101143.44
2019-04-28T05:05:42.690Z,101140.89
2019-04-28T05:06:49.807Z,101144.26
2019-04-28T05:07:56.892Z,101138.72
2019-04-28T05:09:05.898Z,101139.17
2019-04-28T05:10:12.954Z,101140.42
2019-04-28T05:11:20.186Z,101139.98
2019-04-28T05:12:27.301Z,101145.05
2019-04-28T05:13:34.049Z,101142.89
2019-04-28T05:14:41.099Z,101141.63
2019-04-28T05:15:47.987Z,101134.03
2019-04-28T05:16:55.049Z,101141.23
2019-04-28T05:18:01.819Z,101135.69
2019-04-28T05:19:10.182Z,101138.66
2019-04-28T05:20:17.499Z,101139.13
2019-04-28T05:21:25.001Z,101137.02
2019-04-28T05:22:34.299Z,101137.40
2019-04-28T05:24:09.219Z,101142.44
2019-04-28T05:25:37.373Z,101137.41
2019-04-28T05:26:47.615Z,101139.06
2019-04-28T05:27:54.574Z,101141.61
2019-04-28T05:29:01.946Z,101144.98
2019-04-28T05:30:10.431Z,101150.92
2019-04-28T05:31:23.389Z,101147.08
2019-04-28T05:32:39.222Z,101144.50
2019-04-28T05:33:35.800Z,101148.70
2019-04-28T05:34:46.751Z,101153.30
2019-04-28T05:35:54.560Z,101149.89
2019-04-28T05:37:00.707Z,101152.52
2019-04-28T05:38:07.863Z,101156.30
2019-04-28T05:39:15.033Z,101159.75
2019-04-28T05:40:22.167Z,101154.64
2019-04-28T05:41:29.613Z,101163.11
2019-04-28T05:42:36.474Z,101162.67
2019-04-28T05:43:43.913Z,101169.03
2019-04-28T05:44:51.017Z,101168.16
2019-04-28T05:45:57.747Z,101170.32
2019-04-28T05:47:04.517Z,101169.80
2019-04-28T05:48:11.817Z,101176.09
2019-04-28T05:49:52.831Z,101177.80
2019-04-28T05:51:04.624Z,101175.70
2019-04-28T05:52:30.013Z,101178.98
2019-04-28T05:53:44.926Z,101176.82
2019-04-28T05:54:56.878Z,101181.98
2019-04-28T05:56:10.529Z,101181.98
2019-04-28T05:57:22.178Z,101177.68
2019-04-28T05:58:45.636Z,101183.19
2019-04-28T06:00:06.351Z,101181.00
2019-04-28T06:01:32.032Z,101182.27
2019-04-28T06:02:55.493Z,101180.18
2019-04-28T06:03:50.947Z,101179.63
2019-04-28T06:04:59.854Z,101184.69
2019-04-28T06:06:06.454Z,101181.77
2019-04-28T06:07:20.759Z,101186.91
2019-04-28T06:08:45.014Z,101184.71
2019-04-28T06:09:53.742Z,101188.53
2019-04-28T06:11:02.120Z,101188.05
2019-04-28T06:12:11.338Z,101191.44
2019-04-28T06:13:20.069Z,101191.36
2019-04-28T06:14:26.994Z,101196.48
2019-04-28T06:15:33.735Z,101198.17
2019-04-28T06:16:40.915Z,101199.83
2019-04-28T06:17:47.662Z,101197.24
2019-04-28T06:18:54.482Z,101199.34
2019-04-28T06:20:01.237Z,101200.61
2019-04-28T06:21:08.342Z,101197.59
2019-04-28T06:22:17.741Z,101198.76
2019-04-28T06:23:23.887Z,101194.44
2019-04-28T06:24:30.652Z,101202.95
2019-04-28T06:25:37.778Z,101202.52
2019-04-28T06:26:44.879Z,101203.77
2019-04-28T06:27:51.957Z,101210.53
2019-04-28T06:28:58.716Z,101203.67
2019-04-28T06:30:06.899Z,101204.11
2019-04-28T06:31:13.777Z,101210.41
2019-04-28T06:32:20.646Z,101214.13
2019-04-28T06:33:28.453Z,101205.56
2019-04-28T06:34:35.537Z,101212.67
2019-04-28T06:35:42.664Z,101212.63
2019-04-28T06:36:49.525Z,101214.73
2019-04-28T06:37:56.977Z,101215.50
2019-04-28T06:39:04.507Z,101217.96
2019-04-28T06:40:11.649Z,101214.94
2019-04-28T06:41:19.105Z,101214.95
2019-04-28T06:42:26.397Z,101218.47
2019-04-28T06:43:33.468Z,101216.63
2019-04-28T06:44:40.200Z,101216.07
2019-04-28T06:45:47.069Z,101219.48
2019-04-28T06:46:54.138Z,101220.63
2019-04-28T06:48:01.299Z,101223.43
2019-04-28T06:49:08.502Z,101220.39
2019-04-28T06:50:15.800Z,101223.02
2019-04-28T06:51:22.599Z,101226.70
2019-04-28T06:52:29.828Z,101225.31
2019-04-28T06:53:36.903Z,101232.56
2019-04-28T06:54:43.637Z,101234.81
2019-04-28T06:55:50.418Z,101227.22
2019-04-28T06:56:57.181Z,101230.08
2019-04-28T06:58:04.311Z,101227.92
2019-04-28T06:59:11.389Z,101228.61
2019-04-28T07:00:19.181Z,101230.31
2019-04-28T07:01:26.356Z,101231.51
2019-04-28T07:02:33.107Z,101227.99
2019-04-28T07:03:40.231Z,101236.01
2019-04-28T07:04:46.978Z,101239.28
2019-04-28T07:05:53.745Z,101241.45
2019-04-28T07:07:00.589Z,101238.88
2019-04-28T07:08:07.359Z,101242.22
2019-04-28T07:09:14.534Z,101244.62
2019-04-28T07:10:21.328Z,101239.33
2019-04-28T07:11:28.444Z,101243.55
2019-04-28T07:12:35.195Z,101236.59
2019-04-28T07:13:42.263Z,101242.38
2019-04-28T07:14:49.105Z,101247.35
2019-04-28T07:15:55.905Z,101247.62
2019-04-28T07:17:03.116Z,101241.70
2019-04-28T07:18:10.207Z,101240.02
2019-04-28T07:19:17.563Z,101246.77
2019-04-28T07:20:43.175Z,101243.67
2019-04-28T07:22:08.859Z,101242.63
2019-04-28T07:23:16.044Z,101240.05
2019-04-28T07:24:22.882Z,101239.41
2019-04-28T07:25:29.624Z,101245.45
2019-04-28T07:26:36.427Z,101246.98
2019-04-28T07:27:43.203Z,101241.75
2019-04-28T07:28:50.404Z,101243.33
2019-04-28T07:29:57.272Z,101247.00
2019-04-28T07:31:04.200Z,101245.11
2019-04-28T07:32:11.262Z,101246.37
2019-04-28T07:33:18.444Z,101246.33
2019-04-28T07:34:25.523Z,101250.51
2019-04-28T07:35:32.905Z,101254.74
2019-04-28T07:36:40.074Z,101247.81
2019-04-28T07:37:47.469Z,101251.95
2019-04-28T07:38:54.246Z,101255.82
2019-04-28T07:40:01.008Z,101253.54
2019-04-28T07:41:08.191Z,101254.84
2019-04-28T07:42:15.103Z,101257.13
2019-04-28T07:43:21.857Z,101259.66
2019-04-28T07:44:28.916Z,101262.98
2019-04-28T07:45:36.415Z,101266.91
2019-04-28T07:46:43.203Z,101260.97
2019-04-28T07:47:50.332Z,101267.50
2019-04-28T07:48:57.096Z,101274.44
2019-04-28T07:50:04.463Z,101267.16
2019-04-28T07:51:11.226Z,101267.47
2019-04-28T07:52:24.794Z,101267.30
2019-04-28T07:53:39.676Z,101268.34
2019-04-28T07:54:46.839Z,101266.24
2019-04-28T07:55:53.902Z,101268.91
2019-04-28T07:57:00.690Z,101269.86
2019-04-28T07:58:07.866Z,101266.42
2019-04-28T07:59:14.993Z,101266.00
2019-04-28T08:00:27.849Z,101265.80
2019-04-28T08:01:34.837Z,101262.42
2019-04-28T08:02:42.651Z,101262.72
2019-04-28T08:03:50.066Z,101271.20
2019-04-28T08:04:57.721Z,101270.13
2019-04-28T08:06:05.117Z,101267.34
2019-04-28T08:07:11.994Z,101272.62
2019-04-28T08:08:19.549Z,101272.92
2019-04-28T08:09:26.731Z,101273.86
2019-04-28T08:10:33.548Z,101270.61
2019-04-28T08:11:40.525Z,101275.50
2019-04-28T08:12:49.242Z,101275.81
2019-04-28T08:13:56.075Z,101278.36
2019-04-28T08:15:03.099Z,101279.12
2019-04-28T08:16:10.040Z,101278.37
2019-04-28T08:17:17.150Z,101288.88
2019-04-28T08:18:24.845Z,101282.86
2019-04-28T08:19:32.238Z,101291.80
2019-04-28T08:20:39.380Z,101290.25
2019-04-28T08:21:46.450Z,101291.27
2019-04-28T08:22:53.931Z,101285.28
2019-04-28T08:24:00.706Z,101280.45
2019-04-28T08:25:08.363Z,101279.17
2019-04-28T08:26:15.238Z,101288.17
2019-04-28T08:27:22.785Z,101288.59
2019-04-28T08:28:29.965Z,101287.09
2019-04-28T08:29:36.816Z,101284.73
2019-04-28T08:30:43.692Z,101287.16
2019-04-28T08:32:00.467Z,101288.14
2019-04-28T08:33:20.746Z,101290.64
2019-04-28T08:34:27.594Z,101288.07
2019-04-28T08:35:34.810Z,101302.05
2019-04-28T08:36:42.054Z,101298.75
2019-04-28T08:37:50.404Z,101298.64
2019-04-28T08:38:57.728Z,101298.58
2019-04-28T08:40:05.460Z,101298.75
2019-04-28T08:41:13.204Z,101304.63
2019-04-28T08:42:20.413Z,101302.99
2019-04-28T08:43:27.768Z,101304.34
2019-04-28T08:44:35.070Z,101300.09
2019-04-28T08:45:42.219Z,101304.66
2019-04-28T08:46:50.012Z,101310.39
2019-04-28T08:47:58.080Z,101305.66
2019-04-28T08:49:05.372Z,101307.88
2019-04-28T08:50:13.478Z,101311.05
2019-04-28T08:51:20.410Z,101308.11
2019-04-28T08:52:27.897Z,101311.50
2019-04-28T08:53:34.869Z,101311.99
2019-04-28T08:54:41.760Z,101315.28
2019-04-28T08:55:49.643Z,101315.09
2019-04-28T08:56:56.479Z,101316.16
2019-04-28T08:58:03.327Z,101314.83
2019-04-28T08:59:10.351Z,101317.22
2019-04-28T09:00:18.953Z,101317.47
2019-04-28T09:01:25.878Z,101318.02
2019-04-28T09:02:33.296Z,101316.35
2019-04-28T09:03:40.303Z,101315.33
2019-04-28T09:04:47.743Z,101321.95
2019-04-28T09:05:54.878Z,101330.97
2019-04-28T09:07:02.342Z,101326.13
2019-04-28T09:08:09.507Z,101332.52
2019-04-28T09:09:17.701Z,101328.08
2019-04-28T09:10:24.911Z,101326.44
2019-04-28T09:11:32.007Z,101329.66
2019-04-28T09:12:38.953Z,101328.03
2019-04-28T09:13:46.534Z,101329.29
2019-04-28T09:14:53.674Z,101330.88
2019-04-28T09:16:01.609Z,101335.58
2019-04-28T09:17:08.964Z,101338.03
2019-04-28T09:18:16.073Z,101337.03
2019-04-28T09:19:23.416Z,101341.73
2019-04-28T09:20:30.531Z,101335.03
2019-04-28T09:21:37.657Z,101339.52
2019-04-28T09:22:44.451Z,101339.44
2019-04-28T09:23:51.727Z,101338.11
2019-04-28T09:24:58.978Z,101345.85
2019-04-28T09:26:06.109Z,101341.73
2019-04-28T09:27:13.015Z,101345.77
2019-04-28T09:28:20.330Z,101349.97
2019-04-28T09:29:27.081Z,101348.88
2019-04-28T09:30:34.185Z,101355.92
2019-04-28T09:31:40.976Z,101355.34
2019-04-28T09:32:48.207Z,101358.00
2019-04-28T09:33:54.951Z,101356.95
2019-04-28T09:35:01.708Z,101364.08
2019-04-28T09:36:08.510Z,101361.23
2019-04-28T09:37:15.627Z,101356.13
2019-04-28T09:38:22.700Z,101361.83
2019-04-28T09:39:52.005Z,101359.86
2019-04-28T09:40:58.762Z,101361.84
2019-04-28T09:42:39.703Z,101366.74
2019-04-28T09:44:11.369Z,101363.88
2019-04-28T09:45:21.193Z,101370.99
2019-04-28T09:46:33.390Z,101363.79
2019-04-28T09:47:40.752Z,101365.05
2019-04-28T09:48:47.835Z,101366.09
2019-04-28T09:49:54.889Z,101362.30
2019-04-28T09:51:01.952Z,101368.08
2019-04-28T09:52:09.341Z,101369.57
2019-04-28T09:53:16.428Z,101368.42
2019-04-28T09:54:23.174Z,101367.59
2019-04-28T09:55:29.978Z,101367.03
2019-04-28T09:56:37.229Z,101371.75
2019-04-28T09:57:43.996Z,101366.81
2019-04-28T09:58:50.880Z,101370.70
2019-04-28T09:59:58.022Z,101370.90
2019-04-28T10:01:05.112Z,101372.23
2019-04-28T10:02:12.334Z,101373.25
2019-04-28T10:03:19.287Z,101375.30
2019-04-28T10:04:26.580Z,101374.44
2019-04-28T10:05:33.504Z,101374.24
2019-04-28T10:06:40.657Z,101376.10
2019-04-28T10:07:47.932Z,101374.20
2019-04-28T10:08:55.593Z,101380.45
2019-04-28T10:10:02.405Z,101374.73
2019-04-28T10:11:09.170Z,101367.69
2019-04-28T10:12:26.574Z,101366.86
2019-04-28T10:13:25.243Z,101371.02
2019-04-28T10:14:33.175Z,101371.16
2019-04-28T10:15:39.928Z,101372.36
2019-04-28T10:16:47.506Z,101375.38
2019-04-28T10:17:54.450Z,101378.06
2019-04-28T10:19:01.573Z,101380.80
2019-04-28T10:20:09.296Z,101376.44
2019-04-28T10:21:16.463Z,101376.23
2019-04-28T10:22:23.303Z,101384.02
2019-04-28T10:23:30.182Z,101381.73
2019-04-28T10:24:37.706Z,101384.02
2019-04-28T10:25:44.768Z,101382.08
2019-04-28T10:26:51.490Z,101379.85
2019-04-28T10:27:58.619Z,101384.29
2019-04-28T10:29:05.899Z,101391.38
2019-04-28T10:30:13.615Z,101386.41
2019-04-28T10:31:20.693Z,101386.48
2019-04-28T10:32:27.479Z,101389.63
2019-04-28T10:33:34.258Z,101390.51
2019-04-28T10:34:54.055Z,101388.36
2019-04-28T10:35:49.591Z,101385.68
2019-04-28T10:36:56.775Z,101386.22
2019-04-28T10:38:03.570Z,101391.27
2019-04-28T10:39:31.159Z,101380.79
2019-04-28T10:40:47.469Z,101390.92
2019-04-28T10:41:54.598Z,101391.59
2019-04-28T10:43:01.788Z,101389.47
2019-04-28T10:44:09.020Z,101394.23
2019-04-28T10:45:19.671Z,101391.73
2019-04-28T10:46:26.524Z,101393.52
2019-04-28T10:47:33.661Z,101397.19
2019-04-28T10:48:40.740Z,101391.46
2019-04-28T10:49:47.487Z,101393.16
2019-04-28T10:50:54.691Z,101395.91
2019-04-28T10:52:01.979Z,101396.58
2019-04-28T10:53:08.755Z,101400.05
2019-04-28T10:54:15.603Z,101401.98
2019-04-28T10:55:22.366Z,101402.05
2019-04-28T10:56:29.698Z,101403.93
2019-04-28T10:57:36.966Z,101406.33
2019-04-28T10:58:45.655Z,101402.31
2019-04-28T10:59:52.407Z,101403.03
2019-04-28T11:00:59.522Z,101402.87
2019-04-28T11:02:06.310Z,101400.49
2019-04-28T11:03:13.378Z,101401.45
2019-04-28T11:04:38.275Z,101403.34
2019-04-28T11:05:45.877Z,101406.63
2019-04-28T11:06:52.621Z,101404.53
2019-04-28T11:07:59.842Z,101404.73
2019-04-28T11:09:30.124Z,101401.11
2019-04-28T11:10:27.755Z,101406.02
2019-04-28T11:11:34.803Z,101410.66
2019-04-28T11:12:41.630Z,101410.63
2019-04-28T11:13:48.727Z,101407.84
2019-04-28T11:14:55.758Z,101416.27
2019-04-28T11:16:02.643Z,101411.86
2019-04-28T11:17:09.426Z,101410.09
2019-04-28T11:18:17.218Z,101416.52
2019-04-28T11:19:24.320Z,101415.01
2019-04-28T11:20:31.102Z,101414.42
2019-04-28T11:21:37.858Z,101420.86
2019-04-28T11:22:44.942Z,101418.16
2019-04-28T11:23:52.182Z,101410.78
2019-04-28T11:24:58.933Z,101425.20
2019-04-28T11:26:05.954Z,101424.80
2019-04-28T11:27:12.795Z,101422.83
2019-04-28T11:28:19.540Z,101416.98
2019-04-28T11:29:26.346Z,101422.25
2019-04-28T11:30:33.932Z,101425.33
2019-04-28T11:31:40.755Z,101425.97
2019-04-28T11:32:59.039Z,101426.03
2019-04-28T11:34:23.948Z,101428.58
2019-04-28T11:35:31.766Z,101428.20
2019-04-28T11:36:38.557Z,101429.67
2019-04-28T11:37:45.314Z,101431.38
2019-04-28T11:38:52.710Z,101429.46
2019-04-28T11:39:59.798Z,101430.95
2019-04-28T11:41:07.479Z,101427.81
2019-04-28T11:42:14.913Z,101433.20
2019-04-28T11:43:22.053Z,101434.98
2019-04-28T11:44:28.798Z,101432.48
2019-04-28T11:45:35.952Z,101432.97
2019-04-28T11:46:42.759Z,101430.50
2019-04-28T11:47:49.524Z,101439.09
2019-04-28T11:48:56.269Z,101431.41
2019-04-28T11:50:03.065Z,101437.36
2019-04-28T11:51:09.930Z,101432.48
2019-04-28T11:52:17.216Z,101432.75
2019-04-28T11:53:24.497Z,101430.21
2019-04-28T11:54:31.705Z,101436.30
2019-04-28T11:55:38.485Z,101428.70
2019-04-28T11:56:45.251Z,101432.77
2019-04-28T11:57:52.007Z,101432.12
2019-04-28T11:58:58.900Z,101434.82
2019-04-28T12:00:12.578Z,101434.13
2019-04-28T12:01:20.330Z,101433.56
2019-04-28T12:02:27.402Z,101433.23
2019-04-28T12:03:34.220Z,101435.00
2019-04-28T12:04:41.021Z,101444.30
2019-04-28T12:05:48.333Z,101437.83
2019-04-28T12:06:55.416Z,101430.71
2019-04-28T12:08:02.226Z,101436.78
2019-04-28T12:09:40.416Z,101436.73
2019-04-28T12:10:53.039Z,101433.91
2019-04-28T12:12:00.314Z,101431.29
2019-04-28T12:13:17.608Z,101438.16
2019-04-28T12:14:43.441Z,101439.33
2019-04-28T12:16:09.331Z,101439.38
2019-04-28T12:17:31.735Z,101434.96
2019-04-28T12:19:09.772Z,101436.69
2019-04-28T12:20:19.718Z,101443.50
2019-04-28T12:21:26.483Z,101443.64
2019-04-28T12:22:33.460Z,101448.75
2019-04-28T12:23:40.260Z,101453.16
2019-04-28T12:24:47.454Z,101452.06
2019-04-28T12:25:55.020Z,101452.05
2019-04-28T12:27:01.798Z,101455.27
2019-04-28T12:28:08.954Z,101455.58
2019-04-28T12:29:15.725Z,101455.67
2019-04-28T12:30:23.022Z,101457.84
2019-04-28T12:31:30.216Z,101462.23
2019-04-28T12:32:37.350Z,101461.17
2019-04-28T12:33:44.464Z,101461.64
2019-04-28T12:34:51.543Z,101467.23
2019-04-28T12:35:58.389Z,101470.84
2019-04-28T12:37:05.142Z,101467.26
2019-04-28T12:38:12.272Z,101469.11
2019-04-28T12:39:19.352Z,101466.06
2019-04-28T12:40:26.404Z,101466.65
2019-04-28T12:41:33.610Z,101468.58
2019-04-28T12:42:40.367Z,101469.05
2019-04-28T12:43:47.107Z,101460.86
2019-04-28T12:44:53.876Z,101470.81
2019-04-28T12:46:00.772Z,101471.98
2019-04-28T12:47:07.899Z,101474.03
2019-04-28T12:48:14.960Z,101468.88
2019-04-28T12:49:27.232Z,101469.36
2019-04-28T12:50:39.842Z,101474.22
2019-04-28T12:51:47.039Z,101473.27
2019-04-28T12:52:54.108Z,101470.89
2019-04-28T12:54:04.983Z,101470.52
2019-04-28T12:55:12.538Z,101465.49
2019-04-28T12:56:19.288Z,101472.14
2019-04-28T12:57:26.068Z,101480.14
2019-04-28T12:58:32.880Z,101474.30
2019-04-28T12:59:45.289Z,101474.19
2019-04-28T13:01:15.248Z,101480.55
2019-04-28T13:02:50.125Z,101481.77
2019-04-28T13:04:09.166Z,101475.81
2019-04-28T13:05:16.353Z,101479.67
2019-04-28T13:06:23.182Z,101483.72
2019-04-28T13:07:29.968Z,101480.53
2019-04-28T13:08:36.799Z,101482.38